sensor_id;sensor_type;location;lat;lon;timestamp;P1;durP1;ratioP1;P2;durP2;ratioP2
32637;SDS011;19045;52.268;10.506;2023-02-22T00:00:09;55.20;;;26.65;;
32637;SDS011;19045;52.268;10.506;2023-02-22T00:02:47;58.38;;;26.30;;
32637;SDS011;19045;52.268;10.506;2023-02-22T00:05:14;59.85;;;27.52;;
32637;SDS011;19045;52.268;10.506;2023-02-22T00:07:44;53.65;;;27.45;;
32637;SDS011;19045;52.268;10.506;2023-02-22T00:10:12;55.65;;;26.23;;
32637;SDS011;19045;52.268;10.506;2023-02-22T00:12:44;60.60;;;27.23;;
32637;SDS011;19045;52.268;10.506;2023-02-22T00:15:12;56.30;;;26.85;;
32637;SDS011;19045;52.268;10.506;2023-02-22T00:17:39;58.28;;;28.33;;
32637;SDS011;19045;52.268;10.506;2023-02-22T00:20:06;59.88;;;27.70;;
32637;SDS011;19045;52.268;10.506;2023-02-22T00:22:34;56.58;;;26.95;;
32637;SDS011;19045;52.268;10.506;2023-02-22T00:25:00;58.53;;;27.38;;
32637;SDS011;19045;52.268;10.506;2023-02-22T00:27:28;59.17;;;27.67;;
32637;SDS011;19045;52.268;10.506;2023-02-22T00:29:55;56.55;;;26.88;;
32637;SDS011;19045;52.268;10.506;2023-02-22T00:32:23;55.65;;;27.23;;
32637;SDS011;19045;52.268;10.506;2023-02-22T00:34:51;58.00;;;27.00;;
32637;SDS011;19045;52.268;10.506;2023-02-22T00:37:18;61.78;;;28.33;;
32637;SDS011;19045;52.268;10.506;2023-02-22T00:39:45;58.33;;;26.48;;
32637;SDS011;19045;52.268;10.506;2023-02-22T00:42:13;64.47;;;30.00;;
32637;SDS011;19045;52.268;10.506;2023-02-22T00:44:41;58.97;;;27.20;;
32637;SDS011;19045;52.268;10.506;2023-02-22T00:47:07;65.05;;;28.08;;
32637;SDS011;19045;52.268;10.506;2023-02-22T00:49:35;57.08;;;26.98;;
32637;SDS011;19045;52.268;10.506;2023-02-22T00:52:03;61.28;;;26.80;;
32637;SDS011;19045;52.268;10.506;2023-02-22T00:54:32;58.90;;;26.38;;
32637;SDS011;19045;52.268;10.506;2023-02-22T00:57:02;59.40;;;26.92;;
32637;SDS011;19045;52.268;10.506;2023-02-22T00:59:28;60.42;;;27.85;;
32637;SDS011;19045;52.268;10.506;2023-02-22T01:01:57;57.38;;;26.27;;
32637;SDS011;19045;52.268;10.506;2023-02-22T01:04:24;58.28;;;26.75;;
32637;SDS011;19045;52.268;10.506;2023-02-22T01:06:53;55.78;;;25.60;;
32637;SDS011;19045;52.268;10.506;2023-02-22T01:09:20;52.75;;;24.95;;
32637;SDS011;19045;52.268;10.506;2023-02-22T01:11:53;56.33;;;27.52;;
32637;SDS011;19045;52.268;10.506;2023-02-22T01:14:20;58.58;;;26.92;;
32637;SDS011;19045;52.268;10.506;2023-02-22T01:16:50;62.78;;;26.60;;
32637;SDS011;19045;52.268;10.506;2023-02-22T01:19:24;60.30;;;26.83;;
32637;SDS011;19045;52.268;10.506;2023-02-22T01:21:51;53.17;;;26.58;;
32637;SDS011;19045;52.268;10.506;2023-02-22T01:24:21;53.83;;;26.13;;
32637;SDS011;19045;52.268;10.506;2023-02-22T01:26:51;54.88;;;25.35;;
32637;SDS011;19045;52.268;10.506;2023-02-22T01:29:21;51.00;;;24.50;;
32637;SDS011;19045;52.268;10.506;2023-02-22T01:31:51;57.92;;;25.88;;
32637;SDS011;19045;52.268;10.506;2023-02-22T01:34:27;60.42;;;26.38;;
32637;SDS011;19045;52.268;10.506;2023-02-22T01:36:55;56.28;;;26.80;;
32637;SDS011;19045;52.268;10.506;2023-02-22T01:39:25;57.88;;;26.42;;
32637;SDS011;19045;52.268;10.506;2023-02-22T01:41:51;56.47;;;25.83;;
32637;SDS011;19045;52.268;10.506;2023-02-22T01:44:25;53.83;;;25.95;;
32637;SDS011;19045;52.268;10.506;2023-02-22T01:46:54;51.45;;;24.60;;
32637;SDS011;19045;52.268;10.506;2023-02-22T01:49:21;54.58;;;24.23;;
32637;SDS011;19045;52.268;10.506;2023-02-22T01:51:52;49.22;;;23.98;;
32637;SDS011;19045;52.268;10.506;2023-02-22T01:54:22;54.85;;;24.80;;
32637;SDS011;19045;52.268;10.506;2023-02-22T01:56:52;57.60;;;25.83;;
32637;SDS011;19045;52.268;10.506;2023-02-22T01:59:25;56.78;;;24.38;;
32637;SDS011;19045;52.268;10.506;2023-02-22T02:01:57;50.92;;;23.70;;
32637;SDS011;19045;52.268;10.506;2023-02-22T02:04:24;52.72;;;24.33;;
32637;SDS011;19045;52.268;10.506;2023-02-22T02:07:02;54.97;;;25.95;;
32637;SDS011;19045;52.268;10.506;2023-02-22T02:09:34;54.22;;;24.98;;
32637;SDS011;19045;52.268;10.506;2023-02-22T02:12:05;51.55;;;24.25;;
32637;SDS011;19045;52.268;10.506;2023-02-22T02:14:35;57.25;;;24.45;;
32637;SDS011;19045;52.268;10.506;2023-02-22T02:17:04;57.83;;;26.38;;
32637;SDS011;19045;52.268;10.506;2023-02-22T02:19:35;56.92;;;24.80;;
32637;SDS011;19045;52.268;10.506;2023-02-22T02:22:25;50.75;;;23.00;;
32637;SDS011;19045;52.268;10.506;2023-02-22T02:28:16;46.40;;;23.45;;
32637;SDS011;19045;52.268;10.506;2023-02-22T02:31:10;50.10;;;22.85;;
32637;SDS011;19045;52.268;10.506;2023-02-22T02:34:07;58.15;;;24.58;;
32637;SDS011;19045;52.268;10.506;2023-02-22T02:36:43;52.63;;;23.50;;
32637;SDS011;19045;52.268;10.506;2023-02-22T02:39:16;52.22;;;23.55;;
32637;SDS011;19045;52.268;10.506;2023-02-22T02:41:52;53.70;;;23.52;;
32637;SDS011;19045;52.268;10.506;2023-02-22T02:44:20;53.28;;;24.58;;
32637;SDS011;19045;52.268;10.506;2023-02-22T02:46:53;57.30;;;24.80;;
32637;SDS011;19045;52.268;10.506;2023-02-22T02:49:28;56.80;;;24.50;;
32637;SDS011;19045;52.268;10.506;2023-02-22T02:52:00;55.88;;;25.15;;
32637;SDS011;19045;52.268;10.506;2023-02-22T02:54:29;52.72;;;23.83;;
32637;SDS011;19045;52.268;10.506;2023-02-22T02:56:57;52.83;;;24.85;;
32637;SDS011;19045;52.268;10.506;2023-02-22T02:59:24;58.90;;;23.80;;
32637;SDS011;19045;52.268;10.506;2023-02-22T03:01:56;60.45;;;24.65;;
32637;SDS011;19045;52.268;10.506;2023-02-22T03:04:42;57.67;;;24.85;;
32637;SDS011;19045;52.268;10.506;2023-02-22T03:07:21;49.50;;;23.17;;
32637;SDS011;19045;52.268;10.506;2023-02-22T03:10:01;56.63;;;25.48;;
32637;SDS011;19045;52.268;10.506;2023-02-22T03:12:37;56.15;;;24.38;;
32637;SDS011;19045;52.268;10.506;2023-02-22T03:15:12;56.92;;;25.58;;
32637;SDS011;19045;52.268;10.506;2023-02-22T03:17:50;56.97;;;26.05;;
32637;SDS011;19045;52.268;10.506;2023-02-22T03:20:23;53.40;;;24.00;;
32637;SDS011;19045;52.268;10.506;2023-02-22T03:22:56;55.00;;;24.40;;
32637;SDS011;19045;52.268;10.506;2023-02-22T03:25:27;52.65;;;24.42;;
32637;SDS011;19045;52.268;10.506;2023-02-22T03:27:59;52.42;;;24.42;;
32637;SDS011;19045;52.268;10.506;2023-02-22T03:30:30;52.10;;;24.40;;
32637;SDS011;19045;52.268;10.506;2023-02-22T03:33:02;62.03;;;25.77;;
32637;SDS011;19045;52.268;10.506;2023-02-22T03:35:34;60.35;;;25.80;;
32637;SDS011;19045;52.268;10.506;2023-02-22T03:38:05;51.80;;;24.35;;
32637;SDS011;19045;52.268;10.506;2023-02-22T03:40:36;58.97;;;24.63;;
32637;SDS011;19045;52.268;10.506;2023-02-22T03:43:09;61.03;;;25.02;;
32637;SDS011;19045;52.268;10.506;2023-02-22T03:45:41;59.72;;;25.23;;
32637;SDS011;19045;52.268;10.506;2023-02-22T03:48:13;50.90;;;23.90;;
32637;SDS011;19045;52.268;10.506;2023-02-22T03:50:46;55.05;;;25.15;;
32637;SDS011;19045;52.268;10.506;2023-02-22T03:53:15;52.50;;;23.92;;
32637;SDS011;19045;52.268;10.506;2023-02-22T03:55:43;47.88;;;22.40;;
32637;SDS011;19045;52.268;10.506;2023-02-22T03:58:11;51.22;;;23.23;;
32637;SDS011;19045;52.268;10.506;2023-02-22T04:00:39;55.88;;;24.08;;
32637;SDS011;19045;52.268;10.506;2023-02-22T04:03:08;51.38;;;23.20;;
32637;SDS011;19045;52.268;10.506;2023-02-22T04:05:35;54.47;;;23.83;;
32637;SDS011;19045;52.268;10.506;2023-02-22T04:08:03;52.70;;;23.33;;
32637;SDS011;19045;52.268;10.506;2023-02-22T04:10:31;54.97;;;24.20;;
32637;SDS011;19045;52.268;10.506;2023-02-22T04:12:58;57.00;;;23.55;;
32637;SDS011;19045;52.268;10.506;2023-02-22T04:15:25;51.95;;;23.05;;
32637;SDS011;19045;52.268;10.506;2023-02-22T04:17:52;56.03;;;24.13;;
32637;SDS011;19045;52.268;10.506;2023-02-22T04:20:19;56.97;;;23.35;;
32637;SDS011;19045;52.268;10.506;2023-02-22T04:22:49;50.20;;;22.30;;
32637;SDS011;19045;52.268;10.506;2023-02-22T04:25:17;52.97;;;22.88;;
32637;SDS011;19045;52.268;10.506;2023-02-22T04:27:44;59.97;;;25.52;;
32637;SDS011;19045;52.268;10.506;2023-02-22T04:30:11;54.80;;;24.08;;
32637;SDS011;19045;52.268;10.506;2023-02-22T04:32:38;61.95;;;24.95;;
32637;SDS011;19045;52.268;10.506;2023-02-22T04:35:05;56.17;;;23.65;;
32637;SDS011;19045;52.268;10.506;2023-02-22T04:37:32;57.35;;;26.33;;
32637;SDS011;19045;52.268;10.506;2023-02-22T04:39:59;65.30;;;26.35;;
32637;SDS011;19045;52.268;10.506;2023-02-22T04:42:27;64.97;;;25.67;;
32637;SDS011;19045;52.268;10.506;2023-02-22T04:44:54;57.95;;;25.02;;
32637;SDS011;19045;52.268;10.506;2023-02-22T04:47:20;63.35;;;25.65;;
32637;SDS011;19045;52.268;10.506;2023-02-22T04:49:47;60.53;;;25.05;;
32637;SDS011;19045;52.268;10.506;2023-02-22T04:52:13;66.00;;;26.73;;
32637;SDS011;19045;52.268;10.506;2023-02-22T04:54:40;64.97;;;28.23;;
32637;SDS011;19045;52.268;10.506;2023-02-22T04:57:07;64.70;;;27.42;;
32637;SDS011;19045;52.268;10.506;2023-02-22T04:59:36;67.35;;;27.83;;
32637;SDS011;19045;52.268;10.506;2023-02-22T05:02:02;67.40;;;27.73;;
32637;SDS011;19045;52.268;10.506;2023-02-22T05:04:30;61.80;;;26.42;;
32637;SDS011;19045;52.268;10.506;2023-02-22T05:06:56;64.60;;;25.60;;
32637;SDS011;19045;52.268;10.506;2023-02-22T05:09:23;68.28;;;27.35;;
32637;SDS011;19045;52.268;10.506;2023-02-22T05:11:49;61.25;;;26.98;;
32637;SDS011;19045;52.268;10.506;2023-02-22T05:14:16;66.97;;;27.63;;
32637;SDS011;19045;52.268;10.506;2023-02-22T05:16:44;73.00;;;29.52;;
32637;SDS011;19045;52.268;10.506;2023-02-22T05:19:10;64.95;;;27.33;;
32637;SDS011;19045;52.268;10.506;2023-02-22T05:21:37;71.38;;;27.90;;
32637;SDS011;19045;52.268;10.506;2023-02-22T05:24:04;69.82;;;27.35;;
32637;SDS011;19045;52.268;10.506;2023-02-22T05:26:32;68.82;;;27.25;;
32637;SDS011;19045;52.268;10.506;2023-02-22T05:28:59;65.63;;;27.02;;
32637;SDS011;19045;52.268;10.506;2023-02-22T05:31:25;73.40;;;28.27;;
32637;SDS011;19045;52.268;10.506;2023-02-22T05:33:53;70.03;;;27.83;;
32637;SDS011;19045;52.268;10.506;2023-02-22T05:36:20;72.82;;;28.80;;
32637;SDS011;19045;52.268;10.506;2023-02-22T05:38:47;76.05;;;28.67;;
32637;SDS011;19045;52.268;10.506;2023-02-22T05:41:13;60.00;;;25.60;;
32637;SDS011;19045;52.268;10.506;2023-02-22T05:43:40;67.90;;;26.92;;
32637;SDS011;19045;52.268;10.506;2023-02-22T05:46:07;60.72;;;25.73;;
32637;SDS011;19045;52.268;10.506;2023-02-22T05:48:33;59.90;;;25.80;;
32637;SDS011;19045;52.268;10.506;2023-02-22T05:51:02;56.80;;;24.33;;
32637;SDS011;19045;52.268;10.506;2023-02-22T05:53:29;62.22;;;26.55;;
32637;SDS011;19045;52.268;10.506;2023-02-22T05:55:55;61.55;;;22.98;;
32637;SDS011;19045;52.268;10.506;2023-02-22T05:58:22;51.60;;;22.58;;
32637;SDS011;19045;52.268;10.506;2023-02-22T06:00:48;56.90;;;22.92;;
32637;SDS011;19045;52.268;10.506;2023-02-22T06:03:15;49.05;;;21.60;;
32637;SDS011;19045;52.268;10.506;2023-02-22T06:05:42;50.83;;;21.88;;
32637;SDS011;19045;52.268;10.506;2023-02-22T06:08:10;48.85;;;21.70;;
32637;SDS011;19045;52.268;10.506;2023-02-22T06:10:36;53.78;;;21.52;;
32637;SDS011;19045;52.268;10.506;2023-02-22T06:13:03;51.35;;;20.33;;
32637;SDS011;19045;52.268;10.506;2023-02-22T06:15:31;52.03;;;21.63;;
32637;SDS011;19045;52.268;10.506;2023-02-22T06:17:58;48.85;;;21.05;;
32637;SDS011;19045;52.268;10.506;2023-02-22T06:20:27;42.33;;;19.92;;
32637;SDS011;19045;52.268;10.506;2023-02-22T06:22:55;44.08;;;19.52;;
32637;SDS011;19045;52.268;10.506;2023-02-22T06:25:25;43.70;;;18.75;;
32637;SDS011;19045;52.268;10.506;2023-02-22T06:27:55;51.30;;;19.23;;
32637;SDS011;19045;52.268;10.506;2023-02-22T06:30:22;43.90;;;18.67;;
32637;SDS011;19045;52.268;10.506;2023-02-22T06:32:50;43.25;;;18.05;;
32637;SDS011;19045;52.268;10.506;2023-02-22T06:35:16;37.30;;;17.88;;
32637;SDS011;19045;52.268;10.506;2023-02-22T06:37:43;37.97;;;17.67;;
32637;SDS011;19045;52.268;10.506;2023-02-22T06:40:11;43.30;;;18.25;;
32637;SDS011;19045;52.268;10.506;2023-02-22T06:42:39;37.35;;;16.50;;
32637;SDS011;19045;52.268;10.506;2023-02-22T06:45:06;38.25;;;17.52;;
32637;SDS011;19045;52.268;10.506;2023-02-22T06:47:36;37.15;;;16.58;;
32637;SDS011;19045;52.268;10.506;2023-02-22T06:50:03;32.25;;;15.10;;
32637;SDS011;19045;52.268;10.506;2023-02-22T06:52:30;34.58;;;16.10;;
32637;SDS011;19045;52.268;10.506;2023-02-22T06:54:57;32.90;;;15.57;;
32637;SDS011;19045;52.268;10.506;2023-02-22T06:57:23;32.45;;;13.68;;
32637;SDS011;19045;52.268;10.506;2023-02-22T06:59:51;27.10;;;14.13;;
32637;SDS011;19045;52.268;10.506;2023-02-22T07:02:18;26.58;;;14.02;;
32637;SDS011;19045;52.268;10.506;2023-02-22T07:04:44;30.20;;;14.23;;
32637;SDS011;19045;52.268;10.506;2023-02-22T07:07:11;25.55;;;12.77;;
32637;SDS011;19045;52.268;10.506;2023-02-22T07:09:38;30.70;;;13.88;;
32637;SDS011;19045;52.268;10.506;2023-02-22T07:12:04;25.73;;;13.52;;
32637;SDS011;19045;52.268;10.506;2023-02-22T07:14:31;24.40;;;12.20;;
32637;SDS011;19045;52.268;10.506;2023-02-22T07:16:59;30.45;;;14.13;;
32637;SDS011;19045;52.268;10.506;2023-02-22T07:19:26;27.55;;;12.68;;
32637;SDS011;19045;52.268;10.506;2023-02-22T07:21:52;25.05;;;12.27;;
32637;SDS011;19045;52.268;10.506;2023-02-22T07:24:23;23.58;;;11.07;;
32637;SDS011;19045;52.268;10.506;2023-02-22T07:26:50;22.60;;;10.85;;
32637;SDS011;19045;52.268;10.506;2023-02-22T07:29:18;24.23;;;11.48;;
32637;SDS011;19045;52.268;10.506;2023-02-22T07:31:46;22.05;;;10.63;;
32637;SDS011;19045;52.268;10.506;2023-02-22T07:34:14;22.60;;;9.98;;
32637;SDS011;19045;52.268;10.506;2023-02-22T07:36:41;20.75;;;10.20;;
32637;SDS011;19045;52.268;10.506;2023-02-22T07:39:07;22.63;;;10.90;;
32637;SDS011;19045;52.268;10.506;2023-02-22T07:41:35;19.33;;;10.15;;
32637;SDS011;19045;52.268;10.506;2023-02-22T07:44:02;21.27;;;10.95;;
32637;SDS011;19045;52.268;10.506;2023-02-22T07:46:29;22.58;;;11.20;;
32637;SDS011;19045;52.268;10.506;2023-02-22T07:48:55;18.52;;;10.13;;
32637;SDS011;19045;52.268;10.506;2023-02-22T07:51:23;21.58;;;11.25;;
32637;SDS011;19045;52.268;10.506;2023-02-22T07:53:51;22.25;;;11.65;;
32637;SDS011;19045;52.268;10.506;2023-02-22T07:56:17;22.02;;;11.15;;
32637;SDS011;19045;52.268;10.506;2023-02-22T07:58:44;21.08;;;11.07;;
32637;SDS011;19045;52.268;10.506;2023-02-22T08:01:10;21.17;;;10.63;;
32637;SDS011;19045;52.268;10.506;2023-02-22T08:03:38;21.83;;;10.68;;
32637;SDS011;19045;52.268;10.506;2023-02-22T08:06:05;20.88;;;10.40;;
32637;SDS011;19045;52.268;10.506;2023-02-22T08:08:34;21.80;;;10.60;;
32637;SDS011;19045;52.268;10.506;2023-02-22T08:11:01;17.50;;;9.55;;
32637;SDS011;19045;52.268;10.506;2023-02-22T08:13:28;19.88;;;10.77;;
32637;SDS011;19045;52.268;10.506;2023-02-22T08:15:54;20.40;;;11.15;;
32637;SDS011;19045;52.268;10.506;2023-02-22T08:18:22;22.38;;;11.52;;
32637;SDS011;19045;52.268;10.506;2023-02-22T08:20:50;20.45;;;10.68;;
32637;SDS011;19045;52.268;10.506;2023-02-22T08:23:18;20.10;;;11.32;;
32637;SDS011;19045;52.268;10.506;2023-02-22T08:25:48;23.00;;;11.77;;
32637;SDS011;19045;52.268;10.506;2023-02-22T08:28:16;24.65;;;11.48;;
32637;SDS011;19045;52.268;10.506;2023-02-22T08:30:45;23.75;;;11.18;;
32637;SDS011;19045;52.268;10.506;2023-02-22T08:33:12;22.67;;;11.95;;
32637;SDS011;19045;52.268;10.506;2023-02-22T08:35:43;22.17;;;11.32;;
32637;SDS011;19045;52.268;10.506;2023-02-22T08:38:15;18.05;;;11.55;;
32637;SDS011;19045;52.268;10.506;2023-02-22T08:40:43;18.00;;;9.82;;
32637;SDS011;19045;52.268;10.506;2023-02-22T08:43:11;21.15;;;10.45;;
32637;SDS011;19045;52.268;10.506;2023-02-22T08:45:38;20.42;;;11.02;;
32637;SDS011;19045;52.268;10.506;2023-02-22T08:48:05;19.10;;;9.63;;
32637;SDS011;19045;52.268;10.506;2023-02-22T08:50:32;16.73;;;9.00;;
32637;SDS011;19045;52.268;10.506;2023-02-22T08:53:00;16.75;;;8.80;;
32637;SDS011;19045;52.268;10.506;2023-02-22T08:55:28;16.90;;;9.88;;
32637;SDS011;19045;52.268;10.506;2023-02-22T08:57:56;15.15;;;8.35;;
32637;SDS011;19045;52.268;10.506;2023-02-22T09:00:24;14.23;;;8.98;;
32637;SDS011;19045;52.268;10.506;2023-02-22T09:02:53;14.35;;;8.98;;
32637;SDS011;19045;52.268;10.506;2023-02-22T09:05:20;14.02;;;8.38;;
32637;SDS011;19045;52.268;10.506;2023-02-22T09:07:47;13.70;;;8.43;;
32637;SDS011;19045;52.268;10.506;2023-02-22T09:10:14;19.75;;;9.63;;
32637;SDS011;19045;52.268;10.506;2023-02-22T09:12:42;17.98;;;9.27;;
32637;SDS011;19045;52.268;10.506;2023-02-22T09:15:09;22.15;;;8.65;;
32637;SDS011;19045;52.268;10.506;2023-02-22T09:17:37;13.25;;;8.43;;
32637;SDS011;19045;52.268;10.506;2023-02-22T09:20:05;11.73;;;7.88;;
32637;SDS011;19045;52.268;10.506;2023-02-22T09:22:35;14.43;;;8.40;;
32637;SDS011;19045;52.268;10.506;2023-02-22T09:25:02;12.73;;;7.95;;
32637;SDS011;19045;52.268;10.506;2023-02-22T09:27:29;13.70;;;8.18;;
32637;SDS011;19045;52.268;10.506;2023-02-22T09:29:56;12.52;;;7.63;;
32637;SDS011;19045;52.268;10.506;2023-02-22T09:32:23;13.13;;;7.82;;
32637;SDS011;19045;52.268;10.506;2023-02-22T09:34:53;13.30;;;7.30;;
32637;SDS011;19045;52.268;10.506;2023-02-22T09:37:19;12.68;;;7.75;;
32637;SDS011;19045;52.268;10.506;2023-02-22T09:39:46;11.38;;;7.28;;
32637;SDS011;19045;52.268;10.506;2023-02-22T09:42:15;20.70;;;8.25;;
32637;SDS011;19045;52.268;10.506;2023-02-22T09:44:47;11.95;;;7.53;;
32637;SDS011;19045;52.268;10.506;2023-02-22T09:47:19;13.55;;;6.30;;
32637;SDS011;19045;52.268;10.506;2023-02-22T09:49:58;10.07;;;6.28;;
32637;SDS011;19045;52.268;10.506;2023-02-22T09:52:29;9.20;;;6.25;;
32637;SDS011;19045;52.268;10.506;2023-02-22T09:55:01;13.60;;;7.13;;
32637;SDS011;19045;52.268;10.506;2023-02-22T09:57:34;10.50;;;6.55;;
32637;SDS011;19045;52.268;10.506;2023-02-22T10:00:06;12.25;;;6.18;;
32637;SDS011;19045;52.268;10.506;2023-02-22T10:02:43;12.57;;;7.82;;
32637;SDS011;19045;52.268;10.506;2023-02-22T10:05:16;10.95;;;7.15;;
32637;SDS011;19045;52.268;10.506;2023-02-22T10:07:52;11.02;;;6.22;;
32637;SDS011;19045;52.268;10.506;2023-02-22T10:10:22;12.57;;;7.10;;
32637;SDS011;19045;52.268;10.506;2023-02-22T10:12:53;12.27;;;7.85;;
32637;SDS011;19045;52.268;10.506;2023-02-22T10:15:38;11.32;;;6.70;;
32637;SDS011;19045;52.268;10.506;2023-02-22T10:18:20;11.45;;;7.15;;
32637;SDS011;19045;52.268;10.506;2023-02-22T10:21:24;11.57;;;6.70;;
32637;SDS011;19045;52.268;10.506;2023-02-22T10:24:03;11.32;;;7.50;;
32637;SDS011;19045;52.268;10.506;2023-02-22T10:26:40;13.30;;;7.90;;
32637;SDS011;19045;52.268;10.506;2023-02-22T10:29:10;9.95;;;6.93;;
32637;SDS011;19045;52.268;10.506;2023-02-22T10:31:43;12.95;;;7.55;;
32637;SDS011;19045;52.268;10.506;2023-02-22T10:34:13;14.63;;;8.38;;
32637;SDS011;19045;52.268;10.506;2023-02-22T10:36:45;14.88;;;7.85;;
32637;SDS011;19045;52.268;10.506;2023-02-22T10:39:19;12.85;;;8.70;;
32637;SDS011;19045;52.268;10.506;2023-02-22T10:41:54;13.85;;;8.35;;
32637;SDS011;19045;52.268;10.506;2023-02-22T10:44:22;12.70;;;7.85;;
32637;SDS011;19045;52.268;10.506;2023-02-22T10:46:50;13.77;;;8.23;;
32637;SDS011;19045;52.268;10.506;2023-02-22T10:49:19;10.77;;;7.18;;
32637;SDS011;19045;52.268;10.506;2023-02-22T10:51:51;13.93;;;8.15;;
32637;SDS011;19045;52.268;10.506;2023-02-22T10:54:25;12.00;;;8.07;;
32637;SDS011;19045;52.268;10.506;2023-02-22T10:56:56;14.38;;;8.30;;
32637;SDS011;19045;52.268;10.506;2023-02-22T10:59:28;18.27;;;8.82;;
32637;SDS011;19045;52.268;10.506;2023-02-22T11:01:58;13.95;;;7.97;;
32637;SDS011;19045;52.268;10.506;2023-02-22T11:04:25;13.18;;;7.50;;
32637;SDS011;19045;52.268;10.506;2023-02-22T11:07:12;12.93;;;8.55;;
32637;SDS011;19045;52.268;10.506;2023-02-22T11:09:45;15.77;;;9.35;;
32637;SDS011;19045;52.268;10.506;2023-02-22T11:12:16;14.90;;;8.70;;
32637;SDS011;19045;52.268;10.506;2023-02-22T11:14:45;15.05;;;9.68;;
32637;SDS011;19045;52.268;10.506;2023-02-22T11:17:14;15.43;;;9.18;;
32637;SDS011;19045;52.268;10.506;2023-02-22T11:19:45;15.23;;;9.27;;
32637;SDS011;19045;52.268;10.506;2023-02-22T11:22:19;17.77;;;9.95;;
32637;SDS011;19045;52.268;10.506;2023-02-22T11:24:49;13.82;;;8.65;;
32637;SDS011;19045;52.268;10.506;2023-02-22T11:27:30;16.17;;;9.43;;
32637;SDS011;19045;52.268;10.506;2023-02-22T11:32:52;13.82;;;9.32;;
32637;SDS011;19045;52.268;10.506;2023-02-22T11:35:37;15.23;;;9.20;;
32637;SDS011;19045;52.268;10.506;2023-02-22T11:38:18;13.52;;;8.63;;
32637;SDS011;19045;52.268;10.506;2023-02-22T11:40:46;14.80;;;9.75;;
32637;SDS011;19045;52.268;10.506;2023-02-22T11:43:32;13.45;;;9.32;;
32637;SDS011;19045;52.268;10.506;2023-02-22T11:46:00;15.38;;;9.70;;
32637;SDS011;19045;52.268;10.506;2023-02-22T11:48:29;14.90;;;9.20;;
32637;SDS011;19045;52.268;10.506;2023-02-22T11:54:17;15.80;;;10.00;;
32637;SDS011;19045;52.268;10.506;2023-02-22T11:56:58;17.98;;;10.13;;
32637;SDS011;19045;52.268;10.506;2023-02-22T11:59:35;18.20;;;10.38;;
32637;SDS011;19045;52.268;10.506;2023-02-22T12:02:16;15.98;;;10.55;;
32637;SDS011;19045;52.268;10.506;2023-02-22T12:04:57;15.23;;;9.80;;
32637;SDS011;19045;52.268;10.506;2023-02-22T12:07:38;13.40;;;9.63;;
32637;SDS011;19045;52.268;10.506;2023-02-22T12:10:17;19.25;;;9.80;;
32637;SDS011;19045;52.268;10.506;2023-02-22T12:12:57;16.73;;;9.85;;
32637;SDS011;19045;52.268;10.506;2023-02-22T12:15:35;14.65;;;9.88;;
32637;SDS011;19045;52.268;10.506;2023-02-22T12:18:08;17.02;;;9.93;;
32637;SDS011;19045;52.268;10.506;2023-02-22T12:20:45;15.02;;;9.10;;
32637;SDS011;19045;52.268;10.506;2023-02-22T12:23:16;18.25;;;10.18;;
32637;SDS011;19045;52.268;10.506;2023-02-22T12:28:29;18.02;;;9.85;;
32637;SDS011;19045;52.268;10.506;2023-02-22T12:31:03;13.98;;;8.38;;
32637;SDS011;19045;52.268;10.506;2023-02-22T12:33:39;13.27;;;8.70;;
32637;SDS011;19045;52.268;10.506;2023-02-22T12:36:13;19.63;;;9.85;;
32637;SDS011;19045;52.268;10.506;2023-02-22T12:38:45;14.07;;;8.63;;
32637;SDS011;19045;52.268;10.506;2023-02-22T12:41:19;13.73;;;8.70;;
32637;SDS011;19045;52.268;10.506;2023-02-22T12:43:53;13.88;;;9.18;;
32637;SDS011;19045;52.268;10.506;2023-02-22T12:46:25;19.30;;;10.23;;
32637;SDS011;19045;52.268;10.506;2023-02-22T12:51:29;15.00;;;9.75;;
32637;SDS011;19045;52.268;10.506;2023-02-22T12:54:05;14.55;;;8.70;;
32637;SDS011;19045;52.268;10.506;2023-02-22T12:56:38;14.15;;;8.85;;
32637;SDS011;19045;52.268;10.506;2023-02-22T12:59:13;12.38;;;7.32;;
32637;SDS011;19045;52.268;10.506;2023-02-22T13:01:45;15.70;;;8.95;;
32637;SDS011;19045;52.268;10.506;2023-02-22T13:04:17;16.60;;;9.45;;
32637;SDS011;19045;52.268;10.506;2023-02-22T13:06:48;14.15;;;8.30;;
32637;SDS011;19045;52.268;10.506;2023-02-22T13:12:23;13.98;;;9.50;;
32637;SDS011;19045;52.268;10.506;2023-02-22T13:15:00;13.95;;;8.73;;
32637;SDS011;19045;52.268;10.506;2023-02-22T13:17:36;14.00;;;8.80;;
32637;SDS011;19045;52.268;10.506;2023-02-22T13:20:12;12.30;;;7.93;;
32637;SDS011;19045;52.268;10.506;2023-02-22T13:22:47;15.88;;;8.75;;
32637;SDS011;19045;52.268;10.506;2023-02-22T13:25:19;12.07;;;8.25;;
32637;SDS011;19045;52.268;10.506;2023-02-22T13:27:56;17.10;;;8.75;;
32637;SDS011;19045;52.268;10.506;2023-02-22T13:30:28;12.73;;;7.70;;
32637;SDS011;19045;52.268;10.506;2023-02-22T13:33:06;12.20;;;7.50;;
32637;SDS011;19045;52.268;10.506;2023-02-22T13:35:49;13.20;;;8.60;;
32637;SDS011;19045;52.268;10.506;2023-02-22T13:38:42;13.95;;;8.60;;
32637;SDS011;19045;52.268;10.506;2023-02-22T13:41:39;15.30;;;9.35;;
32637;SDS011;19045;52.268;10.506;2023-02-22T13:44:29;14.02;;;8.63;;
32637;SDS011;19045;52.268;10.506;2023-02-22T13:47:28;13.88;;;8.68;;
32637;SDS011;19045;52.268;10.506;2023-02-22T13:50:17;12.65;;;8.43;;
32637;SDS011;19045;52.268;10.506;2023-02-22T13:52:57;16.60;;;9.13;;
32637;SDS011;19045;52.268;10.506;2023-02-22T13:55:29;14.02;;;8.77;;
32637;SDS011;19045;52.268;10.506;2023-02-22T13:57:59;14.43;;;8.75;;
32637;SDS011;19045;52.268;10.506;2023-02-22T14:03:32;16.83;;;9.00;;
32637;SDS011;19045;52.268;10.506;2023-02-22T14:09:14;12.27;;;7.97;;
32637;SDS011;19045;52.268;10.506;2023-02-22T14:12:09;13.93;;;8.55;;
32637;SDS011;19045;52.268;10.506;2023-02-22T14:20:24;14.70;;;9.07;;
32637;SDS011;19045;52.268;10.506;2023-02-22T14:22:56;13.80;;;8.20;;
32637;SDS011;19045;52.268;10.506;2023-02-22T14:25:44;16.95;;;8.88;;
32637;SDS011;19045;52.268;10.506;2023-02-22T14:28:34;14.13;;;8.93;;
32637;SDS011;19045;52.268;10.506;2023-02-22T14:33:54;17.03;;;10.17;;
32637;SDS011;19045;52.268;10.506;2023-02-22T14:36:28;15.20;;;9.27;;
32637;SDS011;19045;52.268;10.506;2023-02-22T14:39:02;17.83;;;10.23;;
32637;SDS011;19045;52.268;10.506;2023-02-22T14:41:34;29.27;;;9.68;;
32637;SDS011;19045;52.268;10.506;2023-02-22T14:44:03;15.77;;;10.40;;
32637;SDS011;19045;52.268;10.506;2023-02-22T14:49:43;18.15;;;10.20;;
32637;SDS011;19045;52.268;10.506;2023-02-22T14:52:16;14.70;;;10.00;;
32637;SDS011;19045;52.268;10.506;2023-02-22T14:54:58;18.13;;;11.30;;
32637;SDS011;19045;52.268;10.506;2023-02-22T14:57:33;15.95;;;10.25;;
32637;SDS011;19045;52.268;10.506;2023-02-22T15:00:13;17.73;;;11.70;;
32637;SDS011;19045;52.268;10.506;2023-02-22T15:02:45;21.10;;;11.48;;
32637;SDS011;19045;52.268;10.506;2023-02-22T15:05:14;19.42;;;11.35;;
32637;SDS011;19045;52.268;10.506;2023-02-22T15:07:50;21.60;;;12.43;;
32637;SDS011;19045;52.268;10.506;2023-02-22T15:10:19;19.13;;;12.02;;